createdAt,value
2019-04-28T00:02:08.733Z,96.30
2019-04-28T00:04:41.573Z,96.40
2019-04-28T00:07:13.612Z,96.30
2019-04-28T00:09:46.139Z,96.40
2019-04-28T00:12:18.301Z,96.50
2019-04-28T00:14:51.675Z,96.60
2019-04-28T00:17:23.949Z,96.80
2019-04-28T00:19:57.560Z,96.90
2019-04-28T00:22:53.229Z,97.00
2019-04-28T00:25:31.222Z,97.10
2019-04-28T00:28:03.444Z,97.20
2019-04-28T00:30:35.516Z,97.50
2019-04-28T00:33:07.592Z,97.60
2019-04-28T00:35:39.595Z,97.80
2019-04-28T00:38:13.060Z,97.80
2019-04-28T00:40:45.520Z,98.10
2019-04-28T00:43:17.632Z,98.20
2019-04-28T00:45:51.299Z,98.30
2019-04-28T00:48:23.699Z,98.40
2019-04-28T00:50:55.705Z,98.40
2019-04-28T00:53:27.933Z,98.40
2019-04-28T00:56:02.195Z,98.50
2019-04-28T00:58:33.752Z,98.50
2019-04-28T01:01:11.295Z,98.60
2019-04-28T01:03:43.129Z,98.80
2019-04-28T01:06:15.157Z,98.80
2019-04-28T01:08:47.122Z,99.00
2019-04-28T01:11:19.219Z,99.10
2019-04-28T01:13:51.767Z,99.10
2019-04-28T01:16:33.736Z,99.20
2019-04-28T01:19:10.711Z,99.20
2019-04-28T01:22:00.400Z,99.30
2019-04-28T01:24:33.380Z,99.30
2019-04-28T01:27:07.174Z,99.50
2019-04-28T01:29:40.314Z,99.60
2019-04-28T01:32:22.984Z,99.60
2019-04-28T01:34:55.220Z,99.80
2019-04-28T01:37:29.525Z,99.80
2019-04-28T01:40:01.472Z,99.80
2019-04-28T01:42:45.273Z,99.70
2019-04-28T01:45:17.513Z,99.60
2019-04-28T01:47:50.434Z,99.40
2019-04-28T01:50:22.692Z,99.50
2019-04-28T01:52:54.803Z,99.40
2019-04-28T01:55:26.837Z,99.30
2019-04-28T01:58:00.303Z,99.30
2019-04-28T02:00:32.351Z,99.20
2019-04-28T02:03:04.519Z,99.00
2019-04-28T02:05:37.681Z,98.90
2019-04-28T02:08:10.256Z,98.90
2019-04-28T02:10:42.427Z,98.90
2019-04-28T02:13:14.454Z,98.80
2019-04-28T02:15:47.162Z,98.80
2019-04-28T02:18:20.071Z,99.00
2019-04-28T02:21:01.948Z,99.20
2019-04-28T02:23:36.603Z,99.20
2019-04-28T02:26:09.694Z,99.50
2019-04-28T02:28:41.995Z,99.20
2019-04-28T02:31:13.994Z,99.20
2019-04-28T02:33:46.057Z,99.30
2019-04-28T02:36:20.637Z,99.40
2019-04-28T02:38:52.233Z,99.40
2019-04-28T02:41:24.246Z,99.60
2019-04-28T02:43:56.295Z,99.60
2019-04-28T02:46:30.683Z,99.80
2019-04-28T02:49:03.261Z,99.80
2019-04-28T02:51:40.970Z,99.70
2019-04-28T02:54:13.009Z,99.90
2019-04-28T02:56:45.028Z,99.90
2019-04-28T02:59:17.139Z,99.90
2019-04-28T03:01:50.923Z,99.90
2019-04-28T03:04:23.717Z,99.90
2019-04-28T03:06:55.732Z,99.90
2019-04-28T03:09:30.405Z,99.90
2019-04-28T03:12:02.435Z,99.90
2019-04-28T03:14:34.442Z,99.90
2019-04-28T03:17:06.511Z,99.90
2019-04-28T03:19:41.245Z,99.90
2019-04-28T03:22:12.626Z,99.90
2019-04-28T03:24:46.351Z,99.90
2019-04-28T03:27:37.200Z,99.80
2019-04-28T03:30:28.175Z,99.30
2019-04-28T03:33:10.842Z,98.90
2019-04-28T03:35:35.920Z,98.10
2019-04-28T03:38:08.079Z,97.30
2019-04-28T03:40:41.446Z,97.10
2019-04-28T03:43:16.196Z,96.80
2019-04-28T03:45:53.586Z,96.20
2019-04-28T03:48:25.549Z,96.00
2019-04-28T03:50:57.690Z,95.80
2019-04-28T03:53:31.184Z,95.70
2019-04-28T03:56:03.598Z,95.50
2019-04-28T03:58:35.640Z,95.30
2019-04-28T04:01:10.445Z,95.00
2019-04-28T04:03:41.920Z,95.10
2019-04-28T04:06:14.097Z,94.90
2019-04-28T04:08:46.129Z,94.80
2019-04-28T04:11:31.989Z,94.50
2019-04-28T04:14:37.977Z,94.30
2019-04-28T04:17:21.011Z,94.40
2019-04-28T04:19:52.053Z,94.40
2019-04-28T04:22:24.007Z,94.40
2019-04-28T04:24:56.208Z,94.40
2019-04-28T04:27:30.803Z,94.50
2019-04-28T04:30:02.210Z,94.40
2019-04-28T04:32:34.349Z,94.60
2019-04-28T04:35:06.848Z,94.50
2019-04-28T04:37:40.630Z,94.50
2019-04-28T04:40:14.339Z,94.50
2019-04-28T04:42:46.270Z,94.60
2019-04-28T04:45:24.434Z,94.70
2019-04-28T04:47:56.424Z,94.80
2019-04-28T04:50:31.064Z,94.80
2019-04-28T04:53:02.818Z,95.00
2019-04-28T04:55:35.221Z,95.20
2019-04-28T04:58:07.351Z,95.20
2019-04-28T05:01:03.088Z,95.30
2019-04-28T05:03:37.344Z,95.40
2019-04-28T05:06:29.833Z,94.70
2019-04-28T05:09:02.215Z,94.30
2019-04-28T05:11:34.219Z,93.60
2019-04-28T05:14:07.591Z,93.40
2019-04-28T05:16:40.141Z,93.00
2019-04-28T05:19:12.209Z,92.70
2019-04-28T05:21:44.225Z,92.40
2019-04-28T05:24:33.674Z,91.90
2019-04-28T05:27:06.393Z,91.50
2019-04-28T05:29:39.827Z,90.20
2019-04-28T05:32:12.026Z,89.50
2019-04-28T05:34:46.667Z,89.20
2019-04-28T05:37:19.466Z,88.60
2019-04-28T05:39:52.518Z,87.90
2019-04-28T05:42:25.796Z,84.70
2019-04-28T05:44:59.795Z,82.40
2019-04-28T05:47:32.091Z,80.60
2019-04-28T05:50:19.665Z,77.30
2019-04-28T05:53:10.845Z,74.80
2019-04-28T05:55:57.503Z,77.00
2019-04-28T05:58:50.992Z,78.30
2019-04-28T06:01:47.998Z,79.10
2019-04-28T06:04:22.462Z,79.80
2019-04-28T06:06:59.669Z,77.50
2019-04-28T06:09:39.979Z,77.20
2019-04-28T06:12:22.364Z,74.70
2019-04-28T06:14:54.442Z,74.20
2019-04-28T06:17:26.477Z,70.40
2019-04-28T06:20:00.151Z,66.70
2019-04-28T06:22:32.555Z,66.10
2019-04-28T06:25:04.829Z,64.90
2019-04-28T06:27:36.825Z,63.50
2019-04-28T06:30:10.493Z,63.50
2019-04-28T06:32:42.510Z,61.40
2019-04-28T06:35:14.715Z,62.00
2019-04-28T06:37:46.807Z,60.00
2019-04-28T06:40:18.852Z,60.30
2019-04-28T06:42:50.876Z,61.30
2019-04-28T06:45:22.970Z,61.40
2019-04-28T06:47:55.360Z,60.20
2019-04-28T06:50:27.374Z,59.20
2019-04-28T06:52:59.508Z,59.00
2019-04-28T06:55:31.935Z,58.10
2019-04-28T06:58:04.012Z,56.40
2019-04-28T07:00:36.277Z,55.70
2019-04-28T07:03:16.997Z,54.70
2019-04-28T07:05:42.320Z,54.20
2019-04-28T07:08:14.605Z,53.30
2019-04-28T07:10:47.212Z,52.40
2019-04-28T07:13:20.722Z,53.30
2019-04-28T07:15:52.790Z,52.70
2019-04-28T07:18:24.812Z,52.20
2019-04-28T07:21:11.614Z,53.00
2019-04-28T07:23:43.611Z,52.80
2019-04-28T07:26:15.672Z,52.90
2019-04-28T07:28:47.766Z,53.60
2019-04-28T07:31:21.422Z,53.00
2019-04-28T07:33:53.480Z,53.60
2019-04-28T07:36:25.564Z,53.60
2019-04-28T07:38:58.662Z,53.20
2019-04-28T07:41:30.814Z,53.40
2019-04-28T07:44:02.830Z,53.40
2019-04-28T07:46:34.961Z,53.30
2019-04-28T07:49:07.281Z,52.20
2019-04-28T07:52:04.359Z,52.10
2019-04-28T07:54:36.469Z,52.60
2019-04-28T07:57:08.511Z,52.10
2019-04-28T07:59:40.790Z,51.60
2019-04-28T08:02:12.792Z,50.90
2019-04-28T08:04:44.990Z,50.30
2019-04-28T08:07:17.212Z,50.10
2019-04-28T08:09:49.359Z,49.60
2019-04-28T08:12:21.676Z,49.20
2019-04-28T08:14:53.823Z,49.00
2019-04-28T08:17:25.827Z,46.50
2019-04-28T08:19:58.317Z,46.50
2019-04-28T08:22:30.356Z,45.30
2019-04-28T08:25:02.400Z,46.00
2019-04-28T08:27:34.566Z,46.30
2019-04-28T08:30:07.051Z,45.80
2019-04-28T08:32:59.014Z,46.10
2019-04-28T08:35:31.044Z,46.60
2019-04-28T08:38:03.653Z,46.20
2019-04-28T08:40:35.677Z,45.90
2019-04-28T08:43:07.781Z,45.40
2019-04-28T08:45:39.802Z,44.70
2019-04-28T08:48:11.911Z,44.80
2019-04-28T08:50:44.318Z,43.80
2019-04-28T08:53:16.439Z,44.60
2019-04-28T08:55:48.694Z,44.30
2019-04-28T08:58:20.831Z,43.50
2019-04-28T09:00:52.930Z,42.90
2019-04-28T09:03:24.964Z,43.00
2019-04-28T09:05:57.076Z,43.20
2019-04-28T09:08:29.721Z,43.20
2019-04-28T09:11:01.815Z,43.80
2019-04-28T09:13:34.065Z,44.40
2019-04-28T09:16:06.370Z,45.10
2019-04-28T09:18:38.393Z,44.40
2019-04-28T09:21:10.520Z,44.20
2019-04-28T09:23:42.571Z,44.80
2019-04-28T09:26:14.707Z,44.70
2019-04-28T09:28:46.701Z,43.90
2019-04-28T09:31:18.951Z,43.40
2019-04-28T09:33:51.008Z,43.40
2019-04-28T09:36:23.063Z,43.50
2019-04-28T09:38:55.456Z,44.10
2019-04-28T09:41:27.598Z,44.10
2019-04-28T09:44:14.637Z,42.10
2019-04-28T09:46:47.326Z,42.70
2019-04-28T09:49:19.322Z,43.00
2019-04-28T09:51:52.002Z,42.70
2019-04-28T09:54:24.139Z,42.30
2019-04-28T09:56:57.189Z,41.90
2019-04-28T09:59:29.805Z,42.20
2019-04-28T10:02:01.849Z,41.90
2019-04-28T10:04:41.462Z,41.80
2019-04-28T10:07:07.738Z,42.20
2019-04-28T10:09:39.994Z,43.00
2019-04-28T10:12:12.097Z,43.10
2019-04-28T10:14:44.202Z,42.60
2019-04-28T10:17:16.279Z,42.30
2019-04-28T10:19:48.465Z,42.60
2019-04-28T10:22:20.491Z,42.00
2019-04-28T10:24:52.565Z,42.60
2019-04-28T10:27:24.590Z,42.50
2019-04-28T10:29:56.682Z,41.50
2019-04-28T10:32:28.849Z,41.90
2019-04-28T10:35:01.148Z,41.10
2019-04-28T10:37:33.134Z,42.20
2019-04-28T10:40:11.913Z,42.90
2019-04-28T10:42:43.997Z,42.30
2019-04-28T10:45:19.871Z,42.30
2019-04-28T10:47:52.328Z,42.30
2019-04-28T10:50:24.479Z,42.80
2019-04-28T10:52:56.857Z,43.20
2019-04-28T10:55:28.924Z,43.50
2019-04-28T10:58:00.991Z,43.80
2019-04-28T11:00:34.688Z,44.10
2019-04-28T11:03:07.366Z,43.90
2019-04-28T11:05:42.196Z,43.90
2019-04-28T11:08:55.190Z,44.10
2019-04-28T11:11:28.788Z,44.10
2019-04-28T11:14:00.946Z,44.00
2019-04-28T11:16:36.710Z,44.10
2019-04-28T11:19:09.936Z,44.10
2019-04-28T11:21:42.379Z,44.70
2019-04-28T11:24:14.487Z,44.70
2019-04-28T11:26:46.646Z,44.00
2019-04-28T11:29:18.835Z,44.40
2019-04-28T11:31:50.884Z,43.90
2019-04-28T11:34:57.182Z,44.00
2019-04-28T11:37:29.274Z,44.70
2019-04-28T11:40:01.330Z,44.90
2019-04-28T11:42:33.377Z,45.40
2019-04-28T11:45:14.006Z,44.90
2019-04-28T11:47:46.278Z,45.60
2019-04-28T11:50:18.639Z,46.00
2019-04-28T11:52:50.781Z,45.90
2019-04-28T11:55:22.890Z,46.20
2019-04-28T11:57:54.979Z,46.40
2019-04-28T12:00:31.794Z,45.90
2019-04-28T12:03:05.018Z,46.40
2019-04-28T12:05:41.407Z,46.90
2019-04-28T12:08:13.690Z,48.20
2019-04-28T12:11:03.908Z,48.00
2019-04-28T12:14:11.752Z,47.30
2019-04-28T12:17:02.815Z,47.10
2019-04-28T12:19:45.123Z,47.90
2019-04-28T12:22:17.186Z,47.30
2019-04-28T12:24:49.345Z,48.10
2019-04-28T12:27:21.472Z,48.50
2019-04-28T12:29:53.930Z,47.10
2019-04-28T12:32:26.103Z,47.20
2019-04-28T12:34:58.263Z,47.60
2019-04-28T12:37:30.360Z,47.30
2019-04-28T12:40:03.323Z,47.60
2019-04-28T12:42:35.451Z,47.30
2019-04-28T12:45:08.354Z,47.10
2019-04-28T12:47:40.613Z,47.90
2019-04-28T12:50:27.313Z,47.40
2019-04-28T12:52:59.621Z,47.70
2019-04-28T12:55:31.907Z,47.30
2019-04-28T12:58:05.201Z,46.80
2019-04-28T13:01:11.514Z,47.00
2019-04-28T13:04:01.300Z,46.60
2019-04-28T13:06:33.420Z,47.70
2019-04-28T13:09:07.536Z,48.00
2019-04-28T13:11:39.769Z,47.90
2019-04-28T13:14:11.891Z,48.10
2019-04-28T13:16:44.017Z,47.90
2019-04-28T13:19:16.293Z,47.60
2019-04-28T13:21:48.519Z,47.70
2019-04-28T13:24:20.866Z,47.70
2019-04-28T13:26:53.035Z,48.00
2019-04-28T13:29:25.236Z,47.80
2019-04-28T13:31:57.352Z,48.00
2019-04-28T13:34:30.978Z,48.60
2019-04-28T13:37:03.449Z,48.10
2019-04-28T13:39:40.675Z,47.90
2019-04-28T13:42:12.722Z,47.50
2019-04-28T13:45:07.151Z,47.90
2019-04-28T13:47:40.172Z,48.20
2019-04-28T13:50:18.586Z,47.80
2019-04-28T13:52:50.735Z,48.00
2019-04-28T13:55:50.700Z,48.20
2019-04-28T13:58:26.297Z,47.70
2019-04-28T14:01:32.300Z,47.20
2019-04-28T14:04:35.571Z,47.30
2019-04-28T14:07:08.361Z,47.10
2019-04-28T14:09:40.578Z,47.40
2019-04-28T14:12:12.843Z,47.40
2019-04-28T14:14:45.077Z,47.60
2019-04-28T14:17:17.288Z,47.60
2019-04-28T14:19:49.467Z,47.70
2019-04-28T14:22:21.769Z,47.30
2019-04-28T14:24:54.039Z,47.60
2019-04-28T14:27:26.286Z,46.70
2019-04-28T14:29:58.495Z,46.70
2019-04-28T14:32:31.913Z,46.10
2019-04-28T14:35:04.501Z,46.80
2019-04-28T14:37:36.861Z,47.00
2019-04-28T14:40:09.604Z,46.50
2019-04-28T14:42:41.731Z,46.60
2019-04-28T14:45:14.272Z,46.40
2019-04-28T14:47:46.957Z,46.20
2019-04-28T14:50:19.764Z,46.30
2019-04-28T14:52:52.058Z,46.30
2019-04-28T14:55:24.807Z,45.60
2019-04-28T14:57:57.475Z,46.30
2019-04-28T15:00:35.116Z,47.30
2019-04-28T15:03:10.619Z,47.50
2019-04-28T15:06:00.250Z,47.90
2019-04-28T15:08:51.697Z,47.70
2019-04-28T15:12:01.804Z,47.50
2019-04-28T15:14:35.310Z,48.10
2019-04-28T15:17:07.435Z,47.50
2019-04-28T15:19:39.951Z,47.70
2019-04-28T15:22:12.335Z,47.30
2019-04-28T15:24:44.594Z,47.50
2019-04-28T15:27:16.687Z,47.40
2019-04-28T15:29:50.330Z,46.30
2019-04-28T15:32:22.552Z,46.80
2019-04-28T15:34:54.967Z,47.30
2019-04-28T15:37:27.275Z,47.30
2019-04-28T15:39:59.568Z,47.40
2019-04-28T15:42:31.936Z,47.70
2019-04-28T15:45:04.291Z,47.70
2019-04-28T15:47:36.490Z,48.20
2019-04-28T15:50:09.165Z,48.80
2019-04-28T15:52:41.336Z,48.50
2019-04-28T15:55:15.575Z,48.70
2019-04-28T15:57:48.163Z,48.50
2019-04-28T16:00:20.507Z,48.40
2019-04-28T16:02:52.692Z,48.10
2019-04-28T16:05:25.215Z,48.20
2019-04-28T16:07:57.350Z,48.70
2019-04-28T16:10:29.640Z,48.90
2019-04-28T16:13:01.879Z,48.50
2019-04-28T16:15:34.165Z,48.70
2019-04-28T16:18:06.629Z,48.50
2019-04-28T16:20:38.828Z,48.60
2019-04-28T16:23:11.347Z,49.10
2019-04-28T16:25:43.699Z,49.40
2019-04-28T16:28:15.987Z,49.60
2019-04-28T16:30:48.380Z,49.90
2019-04-28T16:33:20.561Z,49.70
2019-04-28T16:35:52.932Z,49.80
2019-04-28T16:38:25.201Z,50.10
2019-04-28T16:40:57.415Z,50.40
2019-04-28T16:43:30.875Z,50.70
2019-04-28T16:46:03.067Z,50.60
2019-04-28T16:48:35.679Z,50.40
2019-04-28T16:51:07.957Z,50.40
2019-04-28T16:53:40.123Z,50.90
2019-04-28T16:56:28.999Z,50.80
2019-04-28T16:59:28.674Z,51.10
2019-04-28T17:02:09.132Z,51.40
2019-04-28T17:04:41.272Z,51.40
2019-04-28T17:07:13.686Z,51.90
2019-04-28T17:09:46.204Z,52.10
2019-04-28T17:12:18.575Z,52.00
2019-04-28T17:14:50.835Z,52.20
2019-04-28T17:17:23.166Z,52.50
2019-04-28T17:19:55.648Z,52.60
2019-04-28T17:22:27.967Z,52.70
2019-04-28T17:25:00.289Z,53.10
2019-04-28T17:27:32.724Z,52.80
2019-04-28T17:30:06.891Z,53.10
2019-04-28T17:32:39.369Z,53.20
2019-04-28T17:35:11.866Z,53.60
2019-04-28T17:37:44.243Z,53.70
2019-04-28T17:40:17.464Z,53.70
2019-04-28T17:42:49.919Z,53.80
2019-04-28T17:45:22.529Z,53.90
2019-04-28T17:47:56.315Z,54.00
2019-04-28T17:50:29.338Z,54.20
2019-04-28T17:53:01.586Z,55.10
2019-04-28T17:55:33.843Z,54.50
2019-04-28T17:58:06.242Z,54.50
2019-04-28T18:00:57.805Z,54.50
2019-04-28T18:03:40.605Z,54.80
2019-04-28T18:06:18.184Z,55.00
2019-04-28T18:08:50.741Z,55.30
2019-04-28T18:11:23.569Z,55.40
2019-04-28T18:13:56.215Z,55.60
2019-04-28T18:16:53.247Z,55.60
2019-04-28T18:19:26.234Z,55.60
2019-04-28T18:21:58.918Z,56.30
2019-04-28T18:24:31.655Z,56.30
2019-04-28T18:27:03.947Z,56.40
2019-04-28T18:29:36.987Z,56.20
2019-04-28T18:32:33.814Z,56.50
2019-04-28T18:35:17.224Z,56.50
2019-04-28T18:38:08.351Z,57.40
2019-04-28T18:40:50.823Z,56.80
2019-04-28T18:43:48.025Z,57.10
2019-04-28T18:46:24.720Z,56.50
2019-04-28T18:48:56.934Z,56.50
2019-04-28T18:51:29.825Z,56.80
2019-04-28T18:54:01.998Z,57.00
2019-04-28T18:56:45.017Z,57.20
2019-04-28T18:59:30.476Z,57.30
2019-04-28T19:02:30.350Z,57.40
2019-04-28T19:05:02.507Z,57.60
2019-04-28T19:07:53.456Z,57.80
2019-04-28T19:10:36.285Z,58.00
2019-04-28T19:13:16.027Z,58.10
2019-04-28T19:16:07.777Z,58.00
2019-04-28T19:18:42.262Z,58.20
2019-04-28T19:21:14.457Z,58.30
2019-04-28T19:23:46.807Z,58.60
2019-04-28T19:26:19.082Z,58.40
2019-04-28T19:28:51.376Z,59.10
2019-04-28T19:31:23.534Z,58.80
2019-04-28T19:33:56.138Z,58.80
2019-04-28T19:36:28.730Z,58.80
2019-04-28T19:39:03.586Z,59.30
2019-04-28T19:41:36.593Z,59.20
2019-04-28T19:44:08.981Z,58.70
2019-04-28T19:46:41.157Z,58.10
2019-04-28T19:49:13.376Z,58.60
2019-04-28T19:51:46.228Z,59.40
2019-04-28T19:54:20.580Z,59.30
2019-04-28T19:57:16.807Z,59.40
2019-04-28T20:00:19.473Z,59.80
2019-04-28T20:02:52.137Z,59.50
2019-04-28T20:05:24.697Z,59.50
2019-04-28T20:07:57.546Z,59.40
2019-04-28T20:10:29.984Z,59.10
2019-04-28T20:13:02.273Z,59.00
2019-04-28T20:15:34.439Z,59.50
2019-04-28T20:18:06.722Z,59.50
2019-04-28T20:20:39.177Z,59.30
2019-04-28T20:23:11.914Z,60.20
2019-04-28T20:25:44.720Z,60.20
2019-04-28T20:28:19.278Z,60.30
2019-04-28T20:30:51.742Z,61.00
2019-04-28T20:33:24.322Z,60.10
2019-04-28T20:36:01.174Z,60.80
2019-04-28T20:38:34.525Z,60.80
2019-04-28T20:41:12.533Z,63.20
2019-04-28T20:43:45.827Z,61.10
2019-04-28T20:46:18.144Z,60.70
2019-04-28T20:48:50.762Z,60.60
2019-04-28T20:51:22.899Z,60.80
2019-04-28T20:53:57.576Z,60.60
2019-04-28T20:56:29.984Z,60.70
2019-04-28T20:59:02.299Z,61.10
2019-04-28T21:01:35.016Z,61.30
2019-04-28T21:04:08.021Z,61.30
2019-04-28T21:06:43.233Z,61.80
2019-04-28T21:09:15.655Z,61.70
2019-04-28T21:11:48.168Z,62.70
2019-04-28T21:14:21.020Z,62.30
2019-04-28T21:16:53.568Z,63.10
2019-04-28T21:19:26.410Z,63.60
2019-04-28T21:21:59.174Z,63.70
2019-04-28T21:24:31.357Z,63.50
2019-04-28T21:27:03.754Z,64.30
2019-04-28T21:29:37.225Z,63.80
2019-04-28T21:32:09.563Z,63.80
2019-04-28T21:34:41.728Z,64.20
2019-04-28T21:37:14.324Z,64.40
2019-04-28T21:39:46.547Z,63.50
2019-04-28T21:42:21.929Z,64.60
2019-04-28T21:45:02.457Z,64.70
2019-04-28T21:47:36.841Z,64.80
2019-04-28T21:50:09.241Z,65.30
2019-04-28T21:52:43.074Z,65.50
2019-04-28T21:55:15.781Z,65.60
2019-04-28T21:57:48.193Z,65.90
2019-04-28T22:00:27.198Z,66.40
2019-04-28T22:02:59.513Z,67.00
2019-04-28T22:05:32.435Z,66.90
2019-04-28T22:08:05.326Z,66.90
2019-04-28T22:10:37.459Z,67.10
2019-04-28T22:13:09.600Z,67.80
2019-04-28T22:15:41.847Z,67.90
2019-04-28T22:18:14.552Z,68.10
2019-04-28T22:20:46.796Z,68.70
2019-04-28T22:23:24.161Z,68.00
2019-04-28T22:25:56.403Z,68.50
2019-04-28T22:28:29.025Z,68.40
2019-04-28T22:31:01.988Z,69.90
2019-04-28T22:33:34.129Z,69.30
2019-04-28T22:36:06.708Z,69.00
2019-04-28T22:38:38.927Z,69.10
2019-04-28T22:41:11.044Z,69.40
2019-04-28T22:43:43.202Z,70.40
2019-04-28T22:46:15.280Z,71.60
2019-04-28T22:48:47.361Z,72.70
2019-04-28T22:51:19.475Z,72.40
2019-04-28T22:53:52.646Z,72.10
2019-04-28T22:56:38.140Z,73.50
2019-04-28T22:59:21.018Z,74.20
2019-04-28T23:02:00.799Z,74.80
2019-04-28T23:04:38.896Z,73.40
2019-04-28T23:07:11.239Z,74.60
2019-04-28T23:09:43.353Z,75.40
2019-04-28T23:12:15.603Z,76.10
2019-04-28T23:14:47.652Z,76.30
2019-04-28T23:17:20.658Z,78.00
2019-04-28T23:19:53.160Z,79.30
2019-04-28T23:22:48.013Z,81.30
2019-04-28T23:25:20.134Z,83.00
2019-04-28T23:27:52.241Z,84.30
2019-04-28T23:30:55.324Z,86.40
2019-04-28T23:33:27.575Z,86.90
2019-04-28T23:35:59.767Z,89.50
2019-04-28T23:38:32.069Z,90.50
2019-04-28T23:41:12.348Z,91.20
2019-04-28T23:43:44.848Z,92.20
2019-04-28T23:46:16.966Z,93.30
2019-04-28T23:48:49.066Z,94.20
2019-04-28T23:51:46.022Z,95.20
2019-04-28T23:54:19.396Z,96.30
2019-04-28T23:56:51.524Z,97.10
2019-04-28T23:59:23.643Z,97.80
